createdAt,value
2023-02-01T00:00:13.382Z,-0.64
2023-02-01T00:05:16.430Z,-0.50
2023-02-01T00:10:19.395Z,-0.59
2023-02-01T00:15:24.766Z,-0.68
2023-02-01T00:20:27.672Z,-0.89
2023-02-01T00:25:30.511Z,-1.26
2023-02-01T00:30:32.876Z,-1.05
2023-02-01T00:35:37.803Z,-1.27
2023-02-01T00:40:40.137Z,-1.10
2023-02-01T00:45:42.440Z,-1.11
2023-02-01T00:50:45.392Z,-1.28
2023-02-01T00:55:49.766Z,-1.26
2023-02-01T01:01:16.241Z,-1.25
2023-02-01T01:06:22.597Z,-1.25
2023-02-01T01:11:27.913Z,-1.30
2023-02-01T01:16:33.565Z,-1.28
2023-02-01T01:21:36.012Z,-1.15
2023-02-01T01:26:39.199Z,-1.51
2023-02-01T01:31:41.620Z,-1.45
2023-02-01T01:36:44.537Z,-1.28
2023-02-01T01:41:47.476Z,-1.24
2023-02-01T01:46:59.345Z,-1.36
2023-02-01T01:52:04.423Z,-1.35
2023-02-01T01:57:16.316Z,-1.35
2023-02-01T02:02:18.886Z,-1.27
2023-02-01T02:07:28.738Z,-1.37
2023-02-01T02:12:31.611Z,-1.26
2023-02-01T02:17:47.123Z,-1.52
2023-02-01T02:23:21.265Z,-1.37
2023-02-01T02:28:51.963Z,-1.50
2023-02-01T02:34:17.024Z,-1.60
2023-02-01T02:39:27.897Z,-1.57
2023-02-01T02:45:11.295Z,-1.81
2023-02-01T02:50:53.161Z,-1.44
2023-02-01T02:56:16.401Z,-1.45
2023-02-01T03:01:38.657Z,-1.34
2023-02-01T03:06:41.338Z,-1.28
2023-02-01T03:12:07.475Z,-1.15
2023-02-01T03:17:19.140Z,-1.01
2023-02-01T03:22:25.724Z,-1.06
2023-02-01T03:27:33.911Z,-0.93
2023-02-01T03:32:57.662Z,-0.91
2023-02-01T03:38:41.904Z,-0.87
2023-02-01T03:44:08.692Z,-0.77
2023-02-01T03:49:14.395Z,-0.82
2023-02-01T03:54:19.401Z,-0.72
2023-02-01T03:59:22.434Z,-0.79
2023-02-01T04:04:26.356Z,-0.50
2023-02-01T04:09:31.814Z,-0.57
2023-02-01T04:14:34.721Z,-0.35
2023-02-01T04:19:37.639Z,-0.29
2023-02-01T04:24:40.520Z,-0.18
2023-02-01T04:29:43.762Z,-0.12
2023-02-01T04:34:47.655Z,-0.01
2023-02-01T04:39:50.517Z,-0.16
2023-02-01T04:44:55.206Z,0.06
2023-02-01T04:49:58.605Z,-0.42
2023-02-01T04:55:03.240Z,-0.47
2023-02-01T05:00:25.646Z,-0.26
2023-02-01T05:05:29.926Z,-0.30
2023-02-01T05:10:32.404Z,-0.17
2023-02-01T05:15:36.384Z,-0.32
2023-02-01T05:20:39.456Z,-0.36
2023-02-01T05:25:42.510Z,-0.43
2023-02-01T05:30:45.432Z,-0.58
2023-02-01T05:35:48.433Z,-0.59
2023-02-01T05:40:51.811Z,-0.58
2023-02-01T05:45:54.864Z,-0.35
2023-02-01T05:50:57.658Z,0.02
2023-02-01T05:56:00.514Z,0.27
2023-02-01T06:01:05.564Z,0.11
2023-02-01T06:06:08.677Z,0.46
2023-02-01T06:11:15.271Z,0.66
2023-02-01T06:16:24.440Z,0.81
2023-02-01T06:21:27.454Z,0.89
2023-02-01T06:26:30.311Z,0.92
2023-02-01T06:31:34.652Z,1.11
2023-02-01T06:36:37.449Z,1.21
2023-02-01T06:41:40.223Z,1.22
2023-02-01T06:46:43.231Z,1.41
2023-02-01T06:51:46.088Z,1.52
2023-02-01T06:56:49.669Z,1.45
2023-02-01T07:01:52.647Z,1.52
2023-02-01T07:06:55.671Z,1.57
2023-02-01T07:11:59.663Z,1.54
2023-02-01T07:17:02.560Z,2.04
2023-02-01T07:22:06.288Z,1.86
2023-02-01T07:27:10.895Z,2.20
2023-02-01T07:32:14.390Z,2.34
2023-02-01T07:37:18.037Z,2.49
2023-02-01T07:42:20.878Z,2.63
2023-02-01T07:47:24.030Z,2.59
2023-02-01T07:52:29.972Z,2.71
2023-02-01T07:57:32.362Z,2.61
2023-02-01T08:02:34.767Z,2.51
2023-02-01T08:07:38.047Z,2.85
2023-02-01T08:12:40.560Z,2.73
2023-02-01T08:17:50.836Z,3.02
2023-02-01T08:22:54.479Z,3.05
2023-02-01T08:27:57.565Z,3.05
2023-02-01T08:32:59.940Z,3.42
2023-02-01T08:38:03.923Z,3.71
2023-02-01T08:43:07.339Z,3.56
2023-02-01T08:48:10.978Z,3.68
2023-02-01T08:53:16.010Z,3.55
2023-02-01T08:58:19.575Z,3.80
2023-02-01T09:03:23.829Z,3.81
2023-02-01T09:08:30.920Z,3.94
2023-02-01T09:13:34.876Z,3.88
2023-02-01T09:18:45.848Z,3.88
2023-02-01T09:23:58.738Z,3.64
2023-02-01T09:29:02.228Z,3.45
2023-02-01T09:34:06.364Z,3.35
2023-02-01T09:39:09.524Z,3.54
2023-02-01T09:44:43.912Z,3.33
2023-02-01T09:50:22.266Z,3.71
2023-02-01T09:55:32.504Z,3.79
2023-02-01T10:00:41.456Z,3.77
2023-02-01T10:05:53.699Z,4.10
2023-02-01T10:11:07.633Z,3.78
2023-02-01T10:16:18.520Z,3.93
2023-02-01T10:21:45.109Z,3.70
2023-02-01T10:26:55.978Z,3.52
2023-02-01T10:31:58.917Z,3.87
2023-02-01T10:37:22.770Z,4.03
2023-02-01T10:42:30.149Z,4.03
2023-02-01T10:47:33.350Z,3.99
2023-02-01T10:53:08.395Z,3.95
2023-02-01T10:58:21.835Z,3.78
2023-02-01T11:03:43.638Z,3.95
2023-02-01T11:08:49.361Z,4.13
2023-02-01T11:14:01.096Z,4.24
2023-02-01T11:19:04.425Z,4.27
2023-02-01T11:24:25.386Z,4.34
2023-02-01T11:29:35.927Z,4.58
2023-02-01T11:34:47.656Z,4.48
2023-02-01T11:39:58.803Z,4.41
2023-02-01T11:45:19.543Z,4.49
2023-02-01T11:51:04.903Z,4.31
2023-02-01T11:56:20.480Z,4.21
2023-02-01T12:01:53.086Z,4.08
2023-02-01T12:06:59.888Z,4.30
2023-02-01T12:12:24.436Z,4.33
2023-02-01T12:18:02.995Z,4.48
2023-02-01T12:23:33.114Z,4.20
2023-02-01T12:28:50.373Z,4.47
2023-02-01T12:34:06.106Z,4.28
2023-02-01T12:39:30.676Z,4.57
2023-02-01T12:44:50.379Z,4.45
2023-02-01T12:49:55.622Z,4.36
2023-02-01T12:55:26.405Z,4.38
2023-02-01T13:00:42.335Z,4.31
2023-02-01T13:06:01.416Z,4.32
2023-02-01T13:11:22.610Z,4.52
2023-02-01T13:16:30.068Z,4.45
2023-02-01T13:21:39.334Z,4.24
2023-02-01T13:26:43.676Z,4.16
2023-02-01T13:31:57.295Z,4.18
2023-02-01T13:37:11.949Z,4.01
2023-02-01T13:42:25.085Z,4.00
2023-02-01T13:47:33.106Z,3.70
2023-02-01T13:52:41.613Z,3.92
2023-02-01T13:57:46.131Z,3.61
2023-02-01T14:02:57.600Z,3.71
2023-02-01T14:08:06.305Z,3.57
2023-02-01T14:13:55.871Z,3.31
2023-02-01T14:19:01.745Z,2.86
2023-02-01T14:24:26.940Z,3.43
2023-02-01T14:29:38.402Z,3.11
2023-02-01T14:34:55.781Z,3.38
2023-02-01T14:40:13.347Z,3.37
2023-02-01T14:45:24.320Z,3.17
2023-02-01T14:50:34.092Z,3.12
2023-02-01T14:55:45.414Z,3.05
2023-02-01T15:01:00.382Z,2.60
2023-02-01T15:06:03.171Z,3.01
2023-02-01T15:11:17.360Z,2.67
2023-02-01T15:16:20.510Z,2.91
2023-02-01T15:21:28.691Z,3.08
2023-02-01T15:26:33.796Z,2.54
2023-02-01T15:31:44.495Z,2.96
2023-02-01T15:37:01.888Z,2.18
2023-02-01T15:42:21.242Z,2.88
2023-02-01T15:47:28.233Z,2.62
2023-02-01T15:52:39.609Z,2.68
2023-02-01T15:57:43.458Z,3.06
2023-02-01T16:03:00.536Z,2.72
2023-02-01T16:08:23.072Z,2.45
2023-02-01T16:13:25.678Z,2.81
2023-02-01T16:18:28.590Z,2.96
2023-02-01T16:23:32.465Z,2.96
2023-02-01T16:28:35.465Z,3.11
2023-02-01T16:33:38.401Z,2.84
2023-02-01T16:38:41.326Z,3.04
2023-02-01T16:43:45.088Z,2.82
2023-02-01T16:48:54.060Z,2.92
2023-02-01T16:53:57.626Z,3.05
2023-02-01T16:59:00.702Z,2.88
2023-02-01T17:04:03.636Z,2.66
2023-02-01T17:09:07.384Z,2.60
2023-02-01T17:14:15.881Z,2.51
2023-02-01T17:19:24.823Z,2.53
2023-02-01T17:24:46.656Z,2.25
2023-02-01T17:29:51.468Z,2.65
2023-02-01T17:34:54.163Z,2.70
2023-02-01T17:39:56.997Z,2.40
2023-02-01T17:45:15.092Z,2.43
2023-02-01T17:50:17.886Z,2.49
2023-02-01T17:55:23.743Z,2.38
2023-02-01T18:00:26.307Z,2.27
2023-02-01T18:05:44.999Z,2.22
2023-02-01T18:10:52.549Z,2.36
2023-02-01T18:15:56.193Z,2.42
2023-02-01T18:20:59.051Z,2.59
2023-02-01T18:26:02.156Z,2.55
2023-02-01T18:31:07.426Z,2.60
2023-02-01T18:36:13.338Z,2.53
2023-02-01T18:41:18.898Z,2.24
2023-02-01T18:46:23.236Z,2.51
2023-02-01T18:51:25.832Z,2.15
2023-02-01T18:56:28.292Z,2.30
2023-02-01T19:01:31.294Z,2.25
2023-02-01T19:06:34.084Z,2.38
2023-02-01T19:11:36.987Z,2.22
2023-02-01T19:16:40.183Z,2.27
2023-02-01T19:21:42.776Z,2.31
2023-02-01T19:26:45.115Z,2.04
2023-02-01T19:31:47.920Z,2.25
2023-02-01T19:36:51.246Z,2.18
2023-02-01T19:41:53.565Z,2.07
2023-02-01T19:46:56.671Z,1.97
2023-02-01T19:51:59.130Z,2.01
2023-02-01T19:57:01.635Z,2.17
2023-02-01T20:02:03.870Z,1.97
2023-02-01T20:07:06.403Z,1.75
2023-02-01T20:12:11.139Z,1.54
2023-02-01T20:17:18.054Z,1.69
2023-02-01T20:22:20.357Z,1.74
2023-02-01T20:27:23.626Z,1.83
2023-02-01T20:32:26.004Z,1.71
2023-02-01T20:37:28.360Z,2.00
2023-02-01T20:42:30.953Z,1.80
2023-02-01T20:47:33.388Z,1.78
2023-02-01T20:52:35.977Z,2.20
2023-02-01T20:57:38.360Z,2.27
2023-02-01T21:02:42.076Z,2.01
2023-02-01T21:07:44.989Z,1.72
2023-02-01T21:12:53.362Z,1.80
2023-02-01T21:18:00.292Z,1.95
2023-02-01T21:23:02.690Z,1.99
2023-02-01T21:28:06.208Z,1.79
2023-02-01T21:33:09.126Z,2.02
2023-02-01T21:38:11.840Z,2.00
2023-02-01T21:43:14.582Z,2.08
2023-02-01T21:48:17.746Z,2.04
2023-02-01T21:53:20.241Z,2.00
2023-02-01T21:58:22.594Z,1.69
2023-02-01T22:03:26.484Z,1.87
2023-02-01T22:08:29.133Z,1.58
2023-02-01T22:13:32.345Z,1.32
2023-02-01T22:18:35.816Z,1.61
2023-02-01T22:23:38.753Z,1.47
2023-02-01T22:28:41.430Z,1.73
2023-02-01T22:33:47.073Z,1.80
2023-02-01T22:38:49.864Z,1.78
2023-02-01T22:43:53.437Z,1.57
2023-02-01T22:48:56.387Z,1.58
2023-02-01T22:54:00.798Z,1.71
2023-02-01T22:59:10.956Z,1.60
2023-02-01T23:04:15.225Z,1.80
2023-02-01T23:09:23.905Z,1.80
2023-02-01T23:14:26.402Z,1.82
2023-02-01T23:19:29.540Z,1.82
2023-02-01T23:24:31.845Z,1.52
2023-02-01T23:29:34.624Z,1.45
2023-02-01T23:34:37.827Z,1.77
2023-02-01T23:39:40.744Z,1.72
2023-02-01T23:44:43.033Z,2.00
2023-02-01T23:49:47.020Z,1.75
2023-02-01T23:54:49.318Z,1.87
2023-02-01T23:59:51.835Z,1.68
